Time;durP1;ratioP1;P1;durP2;ratioP2;P2;SDS_P1;SDS_P2;PMS_P1;PMS_P2;Temp;Humidity;BMP_temperature;BMP_pressure;BME280_temperature;BME280_humidity;BME280_pressure;Samples;Min_cycle;Max_cycle;Signal;HPM_P1;HPM_P2
2022/01/24 00:01:33;;;;;;;;;51.00;38.75;;;;;5.77;61.81;103111.25;5059441;28;45442;-84
2022/01/24 00:03:59;;;;;;;;;55.00;41.50;;;;;5.75;62.01;103099.88;5058302;28;45489;-84
2022/01/24 00:06:26;;;;;;;;;55.00;43.25;;;;;5.74;62.16;103100.72;5058998;28;45168;-84
2022/01/24 00:08:51;;;;;;;;;55.50;39.50;;;;;5.70;61.68;103098.88;5059429;28;45177;-84
2022/01/24 00:11:21;;;;;;;;;47.75;38.75;;;;;5.68;61.75;103100.56;5059202;28;45739;-83
2022/01/24 00:26:51;;;;;;;;;54.50;41.50;;;;;5.55;62.28;103095.03;5055698;28;46014;-84
2022/01/24 00:29:19;;;;;;;;;53.00;39.00;;;;;5.52;62.27;103094.94;5063593;28;45474;-84
2022/01/24 00:31:46;;;;;;;;;62.50;45.75;;;;;5.53;61.98;103090.59;5063251;27;45208;-84
2022/01/24 00:34:12;;;;;;;;;54.50;40.75;;;;;5.51;62.67;103087.94;5056505;28;45478;-84
2022/01/24 00:36:38;;;;;;;;;50.25;38.50;;;;;5.52;62.42;103087.13;5057363;28;45859;-84
2022/01/24 00:39:05;;;;;;;;;56.75;41.25;;;;;5.54;62.53;103085.41;5058842;28;45386;-84
2022/01/24 00:41:40;;;;;;;;;54.25;38.00;;;;;5.55;62.32;103078.47;5061362;28;45485;-84
2022/01/24 00:47:10;;;;;;;;;52.50;40.75;;;;;5.54;62.30;103081.91;5038570;28;45601;-82
2022/01/24 00:55:00;;;;;;;;;57.00;41.50;;;;;5.50;62.18;103068.81;5054236;28;45388;-80
2022/01/24 00:57:25;;;;;;;;;54.75;42.00;;;;;5.50;62.28;103074.03;5062052;28;45227;-79
2022/01/24 00:59:51;;;;;;;;;48.25;39.50;;;;;5.49;62.46;103069.66;5061548;28;45546;-79
2022/01/24 01:02:17;;;;;;;;;53.50;41.25;;;;;5.48;62.23;103069.63;5061484;28;45205;-79
2022/01/24 01:05:02;;;;;;;;;51.50;37.75;;;;;5.49;62.31;103068.75;5061222;28;45285;-79
2022/01/24 01:18:18;;;;;;;;;56.00;42.00;;;;;5.49;62.50;103058.31;5061741;28;45205;-82
2022/01/24 01:23:32;;;;;;;;;54.00;42.25;;;;;5.50;62.44;103067.94;5060743;28;46540;-81
2022/01/24 01:26:02;;;;;;;;;51.75;39.25;;;;;5.50;62.67;103070.53;5061101;28;45500;-81
2022/01/24 01:28:29;;;;;;;;;49.75;39.50;;;;;5.50;62.44;103068.81;5060830;28;45812;-82
2022/01/24 01:30:59;;;;;;;;;59.25;41.00;;;;;5.53;62.57;103065.41;5063775;28;45492;-82
2022/01/24 01:36:17;;;;;;;;;54.25;40.75;;;;;5.50;62.29;103063.59;5061253;28;45308;-83
2022/01/24 01:39:05;;;;;;;;;52.75;43.00;;;;;5.48;62.29;103061.78;5060677;28;45338;-82
2022/01/24 01:53:06;;;;;;;;;59.75;45.00;;;;;5.29;62.21;103062.19;5058311;28;45232;-83
2022/01/24 01:55:39;;;;;;;;;59.00;45.00;;;;;5.31;62.66;103066.56;5060620;28;45449;-85
2022/01/24 01:58:17;;;;;;;;;60.50;47.25;;;;;5.24;62.21;103057.66;5060965;28;45444;-85
2022/01/24 02:00:46;;;;;;;;;61.75;46.00;;;;;5.24;62.07;103065.50;5060765;28;45949;-86
2022/01/24 02:03:12;;;;;;;;;64.50;49.25;;;;;5.24;62.27;103062.88;5061129;28;45254;-86
2022/01/24 02:05:38;;;;;;;;;62.25;46.00;;;;;5.21;62.10;103065.44;5060902;28;45486;-84
2022/01/24 02:08:04;;;;;;;;;52.50;42.50;;;;;5.16;62.29;103062.69;5060787;28;45239;-81
2022/01/24 02:10:33;;;;;;;;;59.00;46.00;;;;;5.13;62.35;103058.28;5059999;28;45306;-81
2022/01/24 02:12:59;;;;;;;;;60.75;44.75;;;;;5.11;62.22;103067.75;5060604;28;45374;-81
2022/01/24 02:15:34;;;;;;;;;58.25;42.50;;;;;5.11;62.50;103072.13;5060611;28;45447;-81
2022/01/24 02:18:19;;;;;;;;;51.50;39.75;;;;;5.07;62.07;103073.75;5060624;28;46383;-82
2022/01/24 02:25:54;;;;;;;;;57.25;42.00;;;;;5.01;61.96;103073.59;5060386;28;45472;-84
2022/01/24 02:28:21;;;;;;;;;51.00;38.00;;;;;4.95;61.98;103067.34;5059530;28;46438;-81
2022/01/24 02:33:30;;;;;;;;;49.25;40.50;;;;;4.93;62.69;103056.00;5060378;28;45312;-82
2022/01/24 02:35:55;;;;;;;;;45.25;35.00;;;;;4.88;62.38;103054.97;5060156;28;45422;-82
2022/01/24 02:46:04;;;;;;;;;55.75;42.75;;;;;4.83;62.16;103049.66;5060314;28;45358;-83
2022/01/24 02:49:12;;;;;;;;;42.50;37.75;;;;;4.73;62.23;103045.88;5052003;28;45743;-82
2022/01/24 02:51:46;;;;;;;;;55.75;39.00;;;;;4.73;62.40;103045.88;5059712;28;45247;-90
2022/01/24 02:54:22;;;;;;;;;47.25;41.00;;;;;4.71;62.52;103044.97;5060381;28;45280;-81
2022/01/24 02:56:48;;;;;;;;;49.50;39.00;;;;;4.65;62.27;103031.75;5062037;28;45371;-80
2022/01/24 02:59:13;;;;;;;;;40.50;37.25;;;;;4.61;62.11;103025.56;5053052;28;45573;-86
2022/01/24 03:01:43;;;;;;;;;51.50;40.25;;;;;4.61;62.69;103024.69;5060290;28;45353;-84
2022/01/24 03:04:09;;;;;;;;;44.50;36.50;;;;;4.58;62.41;103030.69;5057301;28;45472;-83
2022/01/24 03:06:35;;;;;;;;;49.25;38.75;;;;;4.57;62.58;103022.81;5059901;28;45260;-84
2022/01/24 03:09:00;;;;;;;;;52.00;38.75;;;;;4.53;62.33;103021.84;5059732;28;45295;-85
2022/01/24 03:11:37;;;;;;;;;43.25;37.50;;;;;4.51;62.52;103028.75;5059847;28;45437;-83
2022/01/24 03:14:03;;;;;;;;;35.25;32.25;;;;;4.49;62.90;103026.06;5058065;28;45722;-81
2022/01/24 03:16:28;;;;;;;;;51.25;36.75;;;;;4.47;62.91;103021.69;5053077;28;45398;-80
2022/01/24 03:18:53;;;;;;;;;55.25;44.50;;;;;4.46;62.45;103023.41;5055661;28;46482;-80
2022/01/24 03:21:19;;;;;;;;;46.50;38.75;;;;;4.42;62.76;103013.72;5059993;28;45515;-80
2022/01/24 03:23:45;;;;;;;;;47.50;37.50;;;;;4.42;62.86;103013.72;5059040;28;45461;-80
2022/01/24 03:26:10;;;;;;;;;49.00;41.00;;;;;4.38;63.01;103010.16;5059101;28;45307;-80
2022/01/24 03:28:35;;;;;;;;;53.25;38.50;;;;;4.38;62.66;103015.34;5058389;28;45339;-80
2022/01/24 03:31:01;;;;;;;;;46.50;37.50;;;;;4.38;62.93;103014.47;5054701;28;45452;-80
2022/01/24 03:33:26;;;;;;;;;49.50;40.50;;;;;4.35;63.14;103020.47;5060068;28;45477;-85
2022/01/24 03:35:51;;;;;;;;;52.00;39.50;;;;;4.34;62.54;103017.81;5059501;28;45355;-85
2022/01/24 03:38:17;;;;;;;;;49.50;40.00;;;;;4.31;63.11;103013.41;5059451;28;45528;-85
2022/01/24 03:40:43;;;;;;;;;38.00;33.25;;;;;4.30;62.53;103010.75;5053410;28;45428;-85
2022/01/24 03:43:08;;;;;;;;;45.50;34.50;;;;;4.27;63.14;103012.41;5059312;28;45301;-86
2022/01/24 03:45:46;;;;;;;;;51.50;36.25;;;;;4.24;62.91;102999.31;5059471;28;45584;-86
2022/01/24 03:49:09;;;;;;;;;43.50;35.75;;;;;4.21;62.62;103007.03;5059301;28;45292;-86
2022/01/24 03:50:58;;;;;;;;;50.75;40.50;;;;;4.19;63.35;103003.50;5041183;28;45345;-86
2022/01/24 03:53:23;;;;;;;;;54.00;41.75;;;;;4.15;62.87;103005.13;5055565;28;45173;-87
2022/01/24 03:55:49;;;;;;;;;51.75;42.00;;;;;4.19;63.03;103013.91;5058158;28;47097;-86
2022/01/24 03:58:14;;;;;;;;;38.25;32.50;;;;;4.14;62.58;103012.88;5059003;28;45410;-85
2022/01/24 04:00:41;;;;;;;;;47.25;38.50;;;;;4.12;62.85;103007.66;5058596;28;45477;-85
2022/01/24 04:03:06;;;;;;;;;52.50;40.00;;;;;4.12;62.77;103007.66;5059360;28;45239;-84
2022/01/24 04:05:32;;;;;;;;;48.00;39.50;;;;;4.10;62.91;103003.22;5057674;28;45889;-81
2022/01/24 04:07:57;;;;;;;;;45.00;36.00;;;;;4.10;63.28;103000.63;5058944;28;45346;-82
2022/01/24 04:10:22;;;;;;;;;49.00;38.75;;;;;4.07;62.90;102996.22;5058204;28;45372;-81
2022/01/24 04:12:50;;;;;;;;;44.25;37.75;;;;;4.05;63.01;102990.94;5058718;28;45374;-82
2022/01/24 04:21:20;;;;;;;;;46.25;39.25;;;;;4.01;62.95;102996.88;5014951;28;45809;-84
2022/01/24 04:23:50;;;;;;;;;48.75;36.75;;;;;4.01;63.17;102996.88;5062350;28;45323;-88
2022/01/24 04:26:16;;;;;;;;;45.75;35.75;;;;;4.00;63.00;102997.72;5062297;28;45405;-88
2022/01/24 04:28:41;;;;;;;;;40.50;36.50;;;;;3.99;63.23;102993.34;5061958;28;46646;-88
2022/01/24 04:31:07;;;;;;;;;48.00;36.25;;;;;3.96;63.31;102997.56;5059160;27;45462;-86
2022/01/24 04:33:33;;;;;;;;;40.25;36.00;;;;;3.94;63.25;102992.31;5062327;28;45561;-84
2022/01/24 04:35:58;;;;;;;;;49.25;37.75;;;;;3.93;63.06;102995.75;5062407;28;45259;-83
2022/01/24 04:38:24;;;;;;;;;53.25;42.00;;;;;3.93;63.27;102998.34;5061661;28;46448;-83
2022/01/24 04:40:53;;;;;;;;;50.00;39.75;;;;;3.90;62.72;102993.06;5052899;28;45818;-85
2022/01/24 04:54:15;;;;;;;;;42.25;34.50;;;;;3.85;63.01;102994.66;5026476;28;45621;-85
2022/01/24 04:56:38;;;;;;;;;51.50;40.00;;;;;3.85;63.13;102992.94;5056054;28;45374;-83
2022/01/24 04:59:04;;;;;;;;;44.00;37.50;;;;;3.86;63.17;102996.38;5061241;28;46307;-83
2022/01/24 05:01:29;;;;;;;;;42.50;36.00;;;;;3.84;63.67;102993.75;5060061;28;45260;-83
2022/01/24 05:03:54;;;;;;;;;53.50;38.25;;;;;3.87;63.05;102998.16;5054000;28;45351;-84
2022/01/24 05:06:20;;;;;;;;;53.25;40.75;;;;;3.82;63.78;102998.03;5057662;28;45341;-83
2022/01/24 05:08:45;;;;;;;;;49.25;36.50;;;;;3.83;63.66;102998.06;5061438;28;45502;-85
2022/01/24 05:11:16;;;;;;;;;45.50;36.75;;;;;3.80;63.67;102995.34;5060382;28;46063;-82
2022/01/24 05:24:28;;;;;;;;;54.75;39.75;;;;;3.77;63.46;102999.59;5061721;28;45456;-82
2022/01/24 05:26:53;;;;;;;;;52.00;37.75;;;;;3.78;63.79;103009.16;5060254;28;45560;-83
2022/01/24 05:29:19;;;;;;;;;42.00;36.50;;;;;3.76;63.59;103003.91;5063498;28;46105;-83
2022/01/24 05:31:44;;;;;;;;;47.00;39.00;;;;;3.76;63.57;102995.22;5061665;28;45536;-84
2022/01/24 05:34:09;;;;;;;;;46.50;38.50;;;;;3.76;63.74;102998.72;5060473;28;45246;-80
2022/01/24 05:36:35;;;;;;;;;46.00;34.25;;;;;3.72;63.77;102991.66;5047463;28;45294;-84
2022/01/24 05:39:01;;;;;;;;;57.75;40.00;;;;;3.75;63.09;102994.34;5060767;28;45243;-82
2022/01/24 05:41:27;;;;;;;;;54.25;41.25;;;;;3.73;63.21;102995.13;5061327;28;45347;-81
2022/01/24 05:43:52;;;;;;;;;49.75;39.00;;;;;3.73;63.57;103001.19;5061157;28;45302;-81
2022/01/24 05:46:18;;;;;;;;;51.25;36.50;;;;;3.73;63.86;102988.19;5060966;28;45453;-81
2022/01/24 05:48:43;;;;;;;;;46.75;39.75;;;;;3.69;63.65;102986.34;5060204;28;46283;-80
2022/01/24 05:51:08;;;;;;;;;47.75;38.00;;;;;3.69;63.79;102988.94;5051570;28;45433;-81
2022/01/24 05:53:34;;;;;;;;;53.50;41.25;;;;;3.66;63.15;102986.22;5054997;28;45461;-81
2022/01/24 05:55:59;;;;;;;;;43.00;37.75;;;;;3.64;63.39;102985.28;5053042;28;45491;-81
2022/01/24 05:58:24;;;;;;;;;48.25;39.75;;;;;3.62;63.01;102990.47;5057684;28;45758;-82
2022/01/24 06:00:50;;;;;;;;;47.75;37.00;;;;;3.62;63.52;102982.66;5058619;28;45373;-81
2022/01/24 06:03:16;;;;;;;;;31.50;29.75;;;;;3.63;63.30;102988.75;5060011;28;45462;-81
2022/01/24 06:05:41;;;;;;;;;47.50;36.00;;;;;3.58;63.56;102991.22;5060448;28;45401;-81
2022/01/24 06:08:06;;;;;;;;;55.00;42.00;;;;;3.57;63.64;102984.22;5060415;28;46239;-81
2022/01/24 06:10:32;;;;;;;;;52.50;39.25;;;;;3.56;63.51;102987.66;5060484;28;45290;-79
2022/01/24 06:12:57;;;;;;;;;51.00;39.75;;;;;3.55;63.38;102991.97;5060610;28;45377;-80
2022/01/24 06:15:23;;;;;;;;;49.75;41.25;;;;;3.53;63.42;102991.03;5062701;28;45334;-79
2022/01/24 06:17:48;;;;;;;;;48.50;37.25;;;;;3.52;63.71;102988.38;5071939;27;45350;-79
2022/01/24 06:20:14;;;;;;;;;47.75;39.50;;;;;3.51;63.79;102990.09;5060495;28;45476;-79
2022/01/24 06:22:41;;;;;;;;;49.25;39.50;;;;;3.48;63.30;102990.88;5060316;28;45210;-78
2022/01/24 06:25:08;;;;;;;;;48.75;39.75;;;;;3.48;63.24;102995.22;5060299;28;45433;-78
2022/01/24 06:27:33;;;;;;;;;48.00;39.00;;;;;3.47;63.69;102988.22;5060180;28;45273;-78
2022/01/24 06:29:59;;;;;;;;;50.25;39.25;;;;;3.48;63.89;103000.41;5073423;28;45217;-79
2022/01/24 06:32:24;;;;;;;;;56.25;37.75;;;;;3.47;63.34;102998.63;5060733;28;45609;-80
2022/01/24 06:34:49;;;;;;;;;54.50;40.00;;;;;3.45;63.43;102995.09;5060058;28;45368;-80
2022/01/24 06:37:15;;;;;;;;;70.75;54.75;;;;;3.46;63.92;103002.06;5060464;28;45465;-80
2022/01/24 06:39:40;;;;;;;;;116.75;89.50;;;;;3.43;63.66;103004.56;5060032;28;45248;-79
2022/01/24 06:42:22;;;;;;;;;155.50;121.00;;;;;3.45;63.59;103005.50;5060154;28;45270;-80
2022/01/24 06:44:48;;;;;;;;;151.75;113.75;;;;;3.41;63.62;102998.44;5058776;28;45476;-81
2022/01/24 06:47:14;;;;;;;;;137.50;111.25;;;;;3.41;63.23;102993.25;5051792;28;45441;-81
2022/01/24 06:49:39;;;;;;;;;88.50;63.50;;;;;3.38;63.33;103000.09;5059014;28;45189;-81
2022/01/24 06:52:06;;;;;;;;;68.00;41.75;;;;;3.41;64.18;103006.25;5063541;28;45533;-81
2022/01/24 06:54:36;;;;;;;;;87.50;63.50;;;;;3.42;63.88;103013.19;5067901;27;45462;-81
2022/01/24 06:57:02;;;;;;;;;92.50;69.75;;;;;3.41;64.22;103008.84;5061922;28;46516;-78
2022/01/24 06:59:28;;;;;;;;;80.00;59.50;;;;;3.38;63.59;103007.03;5052562;28;45720;-78
2022/01/24 07:01:53;;;;;;;;;76.00;58.50;;;;;3.40;63.32;103013.16;5059274;28;45500;-81
2022/01/24 07:04:19;;;;;;;;;63.00;49.25;;;;;3.40;64.02;103012.25;5061208;28;45556;-79
2022/01/24 07:06:44;;;;;;;;;61.75;48.25;;;;;3.36;63.36;103012.16;5050647;28;46344;-78
2022/01/24 07:09:10;;;;;;;;;62.75;49.00;;;;;3.38;63.82;103013.09;5053286;28;45425;-77
2022/01/24 07:11:35;;;;;;;;;61.00;48.00;;;;;3.39;63.47;103013.97;5051391;28;45500;-78
2022/01/24 07:14:06;;;;;;;;;62.25;46.50;;;;;3.39;63.70;103011.38;5054904;28;45563;-78
2022/01/24 07:16:49;;;;;;;;;62.25;49.25;;;;;3.38;63.78;103015.69;5054799;28;48103;-77
2022/01/24 07:19:14;;;;;;;;;59.50;46.50;;;;;3.34;63.58;103011.22;5057682;28;45886;-77
2022/01/24 07:21:39;;;;;;;;;57.75;42.50;;;;;3.36;64.35;103017.34;5059950;28;45255;-77
2022/01/24 07:24:05;;;;;;;;;59.75;47.00;;;;;3.34;63.91;103016.41;5045547;28;45525;-77
2022/01/24 07:26:31;;;;;;;;;58.25;44.75;;;;;3.33;63.40;103011.19;5057492;28;46161;-77
2022/01/24 07:28:56;;;;;;;;;58.00;48.00;;;;;3.36;64.51;103017.34;5057095;28;46965;-77
2022/01/24 07:31:22;;;;;;;;;64.00;50.25;;;;;3.35;63.44;103009.50;5054334;28;45446;-77
2022/01/24 07:33:48;;;;;;;;;69.00;50.75;;;;;3.32;63.99;103005.09;5050569;28;45419;-76
2022/01/24 07:36:13;;;;;;;;;66.00;50.75;;;;;3.35;64.20;103014.72;5056647;28;46110;-76
2022/01/24 07:38:39;;;;;;;;;67.75;52.50;;;;;3.32;63.38;103023.28;5058477;28;45180;-77
2022/01/24 07:41:04;;;;;;;;;61.00;49.00;;;;;3.32;64.16;103015.47;5056356;28;46101;-77
2022/01/24 07:43:29;;;;;;;;;60.00;46.75;;;;;3.34;63.81;103021.63;5054721;28;45465;-77
2022/01/24 07:45:55;;;;;;;;;57.25;44.00;;;;;3.31;64.42;103012.84;5053474;28;45516;-77
2022/01/24 07:48:21;;;;;;;;;61.75;46.75;;;;;3.31;64.00;103013.69;5055518;28;45349;-77
2022/01/24 07:50:47;;;;;;;;;49.25;39.25;;;;;3.30;64.09;103011.94;5053429;28;45750;-76
2022/01/24 07:53:15;;;;;;;;;60.50;48.00;;;;;3.32;64.22;103005.09;5054598;28;46988;-79
2022/01/24 07:55:40;;;;;;;;;60.50;47.00;;;;;3.33;64.07;103008.56;5060818;28;45431;-79
2022/01/24 07:58:06;;;;;;;;;64.25;49.25;;;;;3.34;64.22;103015.53;5051614;28;45490;-76
2022/01/24 08:00:33;;;;;;;;;58.75;43.75;;;;;3.35;64.15;103017.31;5056447;28;45544;-77
2022/01/24 08:02:58;;;;;;;;;55.50;41.00;;;;;3.37;64.59;103018.25;5060302;28;45277;-77
2022/01/24 08:05:26;;;;;;;;;57.75;44.00;;;;;3.37;64.27;103023.44;5061686;28;45371;-77
2022/01/24 08:07:51;;;;;;;;;56.75;44.00;;;;;3.40;64.93;103031.34;5060458;28;45464;-76
2022/01/24 08:10:17;;;;;;;;;59.50;44.50;;;;;3.39;64.92;103037.38;5061198;28;45424;-76
2022/01/24 08:12:44;;;;;;;;;53.75;40.50;;;;;3.39;64.52;103034.78;5060167;28;46481;-77
2022/01/24 08:15:14;;;;;;;;;60.50;47.25;;;;;3.42;64.92;103036.59;5062601;28;45412;-77
2022/01/24 08:17:39;;;;;;;;;55.75;46.00;;;;;3.46;64.47;103041.06;5061154;28;47467;-76
2022/01/24 08:20:05;;;;;;;;;86.25;61.00;;;;;3.45;64.34;103035.00;5061862;28;45467;-77
2022/01/24 08:22:31;;;;;;;;;81.50;61.00;;;;;3.44;64.37;103035.81;5062162;28;45536;-77
2022/01/24 08:24:56;;;;;;;;;82.25;58.50;;;;;3.48;64.63;103042.88;5060136;28;45499;-77
2022/01/24 08:27:24;;;;;;;;;83.00;60.75;;;;;3.47;64.43;103037.63;5059360;28;45637;-78
2022/01/24 08:29:50;;;;;;;;;75.25;59.25;;;;;3.49;65.38;103044.66;5070678;28;45259;-77
2022/01/24 08:32:17;;;;;;;;;70.50;53.50;;;;;3.53;65.09;103039.56;5065368;27;45383;-78
2022/01/24 08:34:42;;;;;;;;;65.75;51.00;;;;;3.52;65.01;103037.78;5059857;28;45495;-78
2022/01/24 08:37:08;;;;;;;;;71.50;54.50;;;;;3.54;65.59;103044.81;5062274;28;45239;-77
2022/01/24 08:39:34;;;;;;;;;67.00;51.00;;;;;3.57;65.06;103039.72;5061595;28;45230;-77
2022/01/24 08:42:13;;;;;;;;;61.50;47.75;;;;;3.58;65.55;103044.06;5062033;28;45202;-77
2022/01/24 08:47:05;;;;;;;;;57.25;40.75;;;;;3.63;64.89;103049.44;5061017;28;45551;-77
2022/01/24 08:49:31;;;;;;;;;64.50;45.25;;;;;3.66;64.87;103048.66;5061024;28;45211;-77
2022/01/24 08:51:59;;;;;;;;;56.00;44.25;;;;;3.73;65.12;103058.44;5061235;28;45231;-77
2022/01/24 08:54:25;;;;;;;;;59.75;44.50;;;;;3.74;65.41;103046.31;5059849;28;45516;-77
2022/01/24 08:56:51;;;;;;;;;59.25;44.50;;;;;3.78;65.39;103042.97;5053065;28;45554;-77
2022/01/24 08:59:16;;;;;;;;;61.25;45.25;;;;;3.85;65.72;103054.50;5052668;28;46052;-77
2022/01/24 09:01:43;;;;;;;;;64.50;46.75;;;;;3.87;65.49;103053.72;5056807;28;47233;-77
2022/01/24 09:04:09;;;;;;;;;52.50;43.00;;;;;3.91;65.41;103052.97;5059362;28;45391;-77
2022/01/24 09:06:34;;;;;;;;;57.00;43.50;;;;;3.96;65.47;103058.31;5060562;28;45658;-77
2022/01/24 09:09:04;;;;;;;;;60.00;47.50;;;;;3.99;65.59;103049.72;5060920;28;45223;-77
2022/01/24 09:11:32;;;;;;;;;58.75;42.25;;;;;4.02;65.81;103049.81;5058097;28;45427;-77
2022/01/24 09:13:58;;;;;;;;;57.00;42.75;;;;;4.09;65.75;103062.19;5052199;28;47227;-77
2022/01/24 09:16:24;;;;;;;;;58.50;43.00;;;;;4.10;65.26;103058.75;5053043;28;46945;-77
2022/01/24 09:18:50;;;;;;;;;55.00;42.50;;;;;4.17;65.72;103057.25;5054196;28;45404;-77
2022/01/24 09:21:16;;;;;;;;;56.25;42.00;;;;;4.20;65.73;103059.91;5061227;28;45532;-77
2022/01/24 09:23:41;;;;;;;;;49.25;38.50;;;;;4.23;65.63;103060.03;5059973;28;45422;-78
2022/01/24 09:26:07;;;;;;;;;54.00;39.25;;;;;4.28;65.20;103057.56;5060942;28;45422;-77
2022/01/24 09:28:32;;;;;;;;;48.00;38.50;;;;;4.29;65.61;103046.31;5060624;28;47197;-77
2022/01/24 09:30:58;;;;;;;;;52.75;39.25;;;;;4.37;65.39;103059.59;5058435;28;45533;-77
2022/01/24 09:33:24;;;;;;;;;58.25;41.75;;;;;4.41;65.62;103058.84;5052876;28;48240;-77
2022/01/24 09:35:51;;;;;;;;;59.00;42.50;;;;;4.49;65.42;103056.47;5053139;28;45461;-77
2022/01/24 09:38:16;;;;;;;;;48.75;39.00;;;;;4.54;65.59;103059.22;5052096;28;45481;-77
2022/01/24 09:40:42;;;;;;;;;51.00;41.75;;;;;4.56;65.18;103055.81;5051759;28;45548;-77
2022/01/24 09:43:08;;;;;;;;;54.00;45.00;;;;;4.62;65.32;103055.09;5050816;28;45961;-77
2022/01/24 09:45:33;;;;;;;;;55.25;42.00;;;;;4.69;65.43;103058.78;5051544;28;45608;-77
2022/01/24 09:48:00;;;;;;;;;54.75;40.25;;;;;4.72;64.95;103058.84;5052409;28;45658;-77
2022/01/24 09:50:25;;;;;;;;;51.75;40.00;;;;;4.76;64.95;103059.84;5054689;28;46115;-77
2022/01/24 09:52:51;;;;;;;;;49.75;41.00;;;;;4.82;64.90;103060.00;5060447;28;45457;-77
2022/01/24 09:55:19;;;;;;;;;52.25;38.25;;;;;4.86;64.73;103067.09;5054945;28;45161;-77
2022/01/24 09:57:47;;;;;;;;;56.75;42.00;;;;;4.91;64.77;103060.28;5059808;28;45414;-77
2022/01/24 10:00:15;;;;;;;;;59.50;43.75;;;;;4.97;64.90;103063.88;5059904;28;45547;-77
2022/01/24 10:02:43;;;;;;;;;59.75;43.00;;;;;5.02;65.06;103064.91;5061011;28;46381;-77
2022/01/24 10:05:17;;;;;;;;;58.50;44.25;;;;;5.11;64.87;103072.13;5058942;28;46142;-77
2022/01/24 10:07:59;;;;;;;;;51.75;41.50;;;;;5.16;64.79;103066.16;5055140;28;46109;-77
2022/01/24 10:10:50;;;;;;;;;52.75;41.75;;;;;5.21;64.61;103058.47;5052097;28;45501;-77
2022/01/24 10:19:10;;;;;;;;;52.75;42.00;;;;;5.31;64.58;103062.22;5056555;28;45370;-78
2022/01/24 10:21:44;;;;;;;;;54.00;37.50;;;;;5.35;64.25;103056.25;5051743;28;45453;-78
2022/01/24 10:24:11;;;;;;;;;51.25;41.50;;;;;5.42;64.30;103061.63;5051762;28;46989;-78
2022/01/24 10:26:37;;;;;;;;;50.50;38.75;;;;;5.47;64.11;103052.19;5051015;28;45603;-78
2022/01/24 10:29:10;;;;;;;;;54.00;43.00;;;;;5.52;63.84;103047.97;5050873;28;45483;-78
2022/01/24 10:31:44;;;;;;;;;54.00;42.50;;;;;5.56;63.78;103052.41;5051440;28;45944;-78
2022/01/24 10:36:39;;;;;;;;;53.00;40.50;;;;;5.66;63.91;103050.03;5051555;28;46738;-78
2022/01/24 10:39:12;;;;;;;;;52.25;42.25;;;;;5.72;63.79;103058.03;5051770;28;45790;-78
2022/01/24 10:44:27;;;;;;;;;53.00;41.00;;;;;5.77;63.47;103052.94;5050527;28;46443;-78
2022/01/24 10:46:52;;;;;;;;;57.00;44.00;;;;;5.82;63.69;103048.72;5050170;28;45611;-78
2022/01/24 10:49:31;;;;;;;;;57.50;42.75;;;;;5.89;63.55;103039.28;5050358;28;45713;-78
2022/01/24 10:52:09;;;;;;;;;52.00;38.25;;;;;5.91;63.26;103046.31;5050860;28;47000;-78
2022/01/24 10:54:34;;;;;;;;;55.25;43.25;;;;;5.93;62.95;103031.56;5050792;28;46242;-78
2022/01/24 10:57:00;;;;;;;;;55.75;42.75;;;;;5.96;62.86;103026.44;5050276;28;45614;-78
2022/01/24 10:59:25;;;;;;;;;58.00;42.75;;;;;6.01;63.13;103030.88;5050691;28;47032;-78
2022/01/24 11:01:56;;;;;;;;;54.50;41.75;;;;;6.06;62.87;103024.91;5049548;28;45571;-78
2022/01/24 11:04:24;;;;;;;;;56.50;41.25;;;;;6.11;62.91;103030.28;5050355;28;45588;-78
2022/01/24 11:06:52;;;;;;;;;50.75;41.00;;;;;6.14;63.23;103019.00;5054199;28;45550;-78
2022/01/24 11:09:26;;;;;;;;;51.00;38.50;;;;;6.19;62.34;103022.63;5049546;28;45797;-78
2022/01/24 11:12:08;;;;;;;;;50.00;39.50;;;;;6.23;62.63;103014.00;5050131;28;45837;-78
2022/01/24 11:14:36;;;;;;;;;49.00;37.25;;;;;6.28;62.39;103014.09;5047229;28;46115;-78
2022/01/24 11:17:03;;;;;;;;;45.25;36.00;;;;;6.27;62.08;103012.34;5050030;28;47593;-78
2022/01/24 11:19:36;;;;;;;;;38.50;36.25;;;;;6.35;62.14;103009.88;5053435;28;45465;-78
2022/01/24 11:22:07;;;;;;;;;45.00;37.50;;;;;6.38;62.47;103007.34;5059823;28;45386;-78
2022/01/24 11:24:46;;;;;;;;;43.00;37.50;;;;;6.42;62.34;102998.72;5056796;28;46689;-78
2022/01/24 11:27:11;;;;;;;;;39.00;33.75;;;;;6.46;62.89;103000.56;5056852;28;45485;-78
2022/01/24 11:29:38;;;;;;;;;41.25;33.25;;;;;6.52;62.37;103000.66;5063949;28;45570;-78
2022/01/24 11:32:25;;;;;;;;;39.50;33.25;;;;;6.58;62.33;103004.25;5058522;28;45498;-78
2022/01/24 11:34:53;;;;;;;;;42.50;35.50;;;;;6.58;61.66;102999.94;5056903;28;45494;-78
2022/01/24 11:37:35;;;;;;;;;34.00;31.25;;;;;6.63;62.01;102995.69;5059265;28;45236;-78
2022/01/24 11:40:06;;;;;;;;;33.00;31.00;;;;;6.67;62.14;102998.38;5059204;28;45497;-78
2022/01/24 11:42:34;;;;;;;;;41.50;34.75;;;;;6.70;62.29;102993.16;5058674;28;45495;-78
2022/01/24 11:45:05;;;;;;;;;38.50;33.50;;;;;6.75;62.05;102994.16;5058380;28;45300;-78
2022/01/24 11:47:31;;;;;;;;;39.75;31.75;;;;;6.77;61.94;102986.31;5059131;28;45429;-79
2022/01/24 11:49:58;;;;;;;;;35.50;32.25;;;;;6.81;61.62;102993.41;5058916;28;45418;-79
2022/01/24 11:52:32;;;;;;;;;38.25;29.25;;;;;6.85;61.80;102990.88;5055619;28;47359;-78
2022/01/24 11:57:36;;;;;;;;;37.00;32.75;;;;;6.92;61.46;102991.84;5058204;28;45267;-79
2022/01/24 12:00:05;;;;;;;;;43.00;36.00;;;;;6.94;61.81;102987.53;5056558;28;45402;-79
2022/01/24 12:02:42;;;;;;;;;45.75;36.00;;;;;6.94;61.71;102976.22;5058425;28;45465;-79
2022/01/24 12:05:17;;;;;;;;;41.75;35.00;;;;;6.99;61.45;102985.00;5057346;28;46037;-79
2022/01/24 12:07:44;;;;;;;;;49.75;37.25;;;;;6.99;61.10;102977.16;5058894;28;45362;-79
2022/01/24 12:10:36;;;;;;;;;42.25;36.00;;;;;7.04;61.04;102980.75;5058270;28;45398;-79
2022/01/24 12:13:14;;;;;;;;;37.00;32.00;;;;;7.05;61.49;102984.25;5055276;28;45387;-79
2022/01/24 12:15:39;;;;;;;;;41.00;36.00;;;;;7.11;60.83;102981.75;5057992;28;45497;-79
2022/01/24 12:18:07;;;;;;;;;43.75;36.00;;;;;7.11;61.08;102976.53;5058234;28;45351;-79
2022/01/24 12:20:34;;;;;;;;;42.50;36.00;;;;;7.17;60.81;102981.84;5056202;28;45437;-78
2022/01/24 12:23:19;;;;;;;;;45.50;34.50;;;;;7.20;60.13;102981.91;5057904;28;45291;-78
2022/01/24 12:25:58;;;;;;;;;40.50;33.00;;;;;7.22;60.32;102976.69;5057123;28;45192;-78
2022/01/24 12:28:26;;;;;;;;;33.25;29.00;;;;;7.22;60.68;102974.09;5058065;28;45251;-78
2022/01/24 12:31:01;;;;;;;;;33.50;29.25;;;;;7.29;60.16;102964.59;5046963;28;45662;-79
2022/01/24 12:33:40;;;;;;;;;39.25;32.50;;;;;7.29;59.77;102957.63;5053970;28;45575;-79
2022/01/24 12:36:12;;;;;;;;;43.75;34.00;;;;;7.34;59.84;102962.06;5056138;28;45453;-79
2022/01/24 12:38:49;;;;;;;;;43.25;33.75;;;;;7.36;59.47;102971.69;5060306;28;45288;-79
2022/01/24 12:41:21;;;;;;;;;34.00;32.25;;;;;7.41;59.70;102970.03;5059562;28;45339;-79
2022/01/24 12:46:28;;;;;;;;;33.25;32.00;;;;;7.49;59.33;102966.66;5061323;28;45409;-79
2022/01/24 12:48:56;;;;;;;;;38.25;29.50;;;;;7.53;59.58;102963.25;5060414;28;45469;-79
2022/01/24 12:51:23;;;;;;;;;31.75;29.25;;;;;7.56;59.77;102963.28;5059915;28;45566;-79
2022/01/24 12:53:50;;;;;;;;;34.00;27.50;;;;;7.58;59.37;102955.47;5061157;28;45504;-79
2022/01/24 12:56:18;;;;;;;;;35.25;29.50;;;;;7.61;59.23;102953.78;5059157;28;46189;-79
2022/01/24 12:58:46;;;;;;;;;30.25;29.50;;;;;7.61;59.53;102956.38;5057993;28;45472;-79
2022/01/24 13:01:30;;;;;;;;;34.50;27.75;;;;;7.67;59.23;102962.56;5059184;28;45409;-79
2022/01/24 13:04:07;;;;;;;;;39.00;30.75;;;;;7.63;58.80;102959.91;5059671;28;45567;-79
2022/01/24 13:06:35;;;;;;;;;39.25;31.00;;;;;7.65;58.57;102959.94;5048232;28;45290;-78
2022/01/24 13:09:16;;;;;;;;;36.25;32.50;;;;;7.68;58.68;102956.50;5060536;28;45512;-78
2022/01/24 13:11:47;;;;;;;;;30.00;26.75;;;;;7.71;58.77;102956.53;5058565;28;45552;-78
2022/01/24 13:14:17;;;;;;;;;32.75;27.50;;;;;7.72;58.93;102947.81;5059538;28;45423;-78